HomeShort term forecast

Short term forecast

Graphical weather forecast for the next 48 hours for Montreal:
Short term forecast
This weather forecast is automatically refreshed every 3 hours.

Hourly Experimental Forecast for the next 48 hours ®

Overall summary: Mostly cloudy until this evening.

 Date & Hour   Temp   Feel   Baro   Hum   Speed & Bearing   Precipitation   Visibility   Cloud cover   Conditions 
 22/11/2017 - 14:00  3.4°C  -0.6°C  1015.5 hPa  77%  18.0 km/h   --  16.1km  59%  Partly Cloudy 
 22/11/2017 - 15:00  3.5°C  -0.3°C  1016.3 hPa  72%  15.7 km/h   0.01 mm/h  16.1km  71%  Mostly Cloudy 
 22/11/2017 - 16:00  2.5°C  -1.5°C  1017.1 hPa  71%  16.1 km/h   0.01 mm/h  16.1km  74%  Mostly Cloudy 
 22/11/2017 - 17:00  1.1°C  -3.3°C  1017.7 hPa  72%  16.5 km/h   0.01 mm/h  16.1km  70%  Mostly Cloudy 
 22/11/2017 - 18:00  -0.5°C  -5.4°C  1018.3 hPa  74%  17.0 km/h   0.01 mm/h  16.1km  67%  Mostly Cloudy 
 22/11/2017 - 19:00  -1.9°C  -7.1°C  1018.8 hPa  76%  17.0 km/h   --  16.1km  59%  Partly Cloudy 
 22/11/2017 - 20:00  -2.9°C  -8.2°C  1019.3 hPa  77%  16.1 km/h   --  16.1km  44%  Partly Cloudy 
 22/11/2017 - 21:00  -3.7°C  -8.9°C  1019.7 hPa  79%  14.7 km/h   --  16.1km  24%  Clear 
 22/11/2017 - 22:00  -4.3°C  -9.3°C  1019.9 hPa  79%  13.6 km/h   --  16.1km  9%  Clear 
 22/11/2017 - 23:00  -4.8°C  -9.9°C  1020.0 hPa  81%  13.0 km/h   --  16.1km  7%  Clear 
 23/11/2017 - 00:00  -5.3°C  -10.3°C  1020.0 hPa  81%  12.7 km/h   0.01 mm/h  16.1km  6%  Clear 
 23/11/2017 - 01:00  -5.6°C  -10.7°C  1019.8 hPa  82%  12.5 km/h   0.01 mm/h  16.1km  5%  Clear 
 23/11/2017 - 02:00  -5.8°C  -10.9°C  1019.6 hPa  82%  12.3 km/h   --  16.1km  4%  Clear 
 23/11/2017 - 03:00  -5.7°C  -10.7°C  1019.4 hPa  80%  12.4 km/h   --  16.1km  3%  Clear 
 23/11/2017 - 04:00  -5.4°C  -10.4°C  1019.2 hPa  78%  12.5 km/h   --  16.1km  3%  Clear 
 23/11/2017 - 05:00  -5.1°C  -10.0°C  1019.3 hPa  76%  12.5 km/h   --  16.1km  3%  Clear 
 23/11/2017 - 06:00  -4.8°C  -9.8°C  1019.6 hPa  74%  12.6 km/h   --  16.1km  5%  Clear 
 23/11/2017 - 07:00  -4.4°C  -9.4°C  1019.6 hPa  73%  12.8 km/h   --  16.1km  8%  Clear 
 23/11/2017 - 08:00  -3.8°C  -8.7°C  1019.4 hPa  71%  13.3 km/h   --  16.1km  17%  Clear 
 23/11/2017 - 09:00  -3.0°C  -7.9°C  1018.9 hPa  69%  14.1 km/h   --  16.1km  28%  Partly Cloudy 
 23/11/2017 - 10:00  -2.1°C  -7.0°C  1018.3 hPa  66%  14.9 km/h   --  16.1km  37%  Partly Cloudy 
 23/11/2017 - 11:00  -1.2°C  -6.1°C  1017.4 hPa  62%  16.1 km/h   --  16.1km  52%  Partly Cloudy 
 23/11/2017 - 12:00  -0.3°C  -5.2°C  1016.4 hPa  59%  17.3 km/h   --  16.1km  68%  Mostly Cloudy 
 23/11/2017 - 13:00  0.3°C  -4.5°C  1015.5 hPa  58%  17.7 km/h   0.01 mm/h  16.1km  80%  Mostly Cloudy 
 23/11/2017 - 14:00  0.6°C  -3.9°C  1014.8 hPa  59%  16.4 km/h   0.01 mm/h  16.1km  82%  Mostly Cloudy 
 23/11/2017 - 15:00  0.5°C  -3.6°C  1014.1 hPa  62%  14.2 km/h   0.01 mm/h  16.1km  83%  Mostly Cloudy 
 23/11/2017 - 16:00  0.3°C  -3.6°C  1013.6 hPa  66%  12.9 km/h   0.01 mm/h  16.1km  82%  Mostly Cloudy 
 23/11/2017 - 17:00  0.0°C  -4.1°C  1013.2 hPa  70%  13.1 km/h   0.01 mm/h  16.1km  76%  Mostly Cloudy 
 23/11/2017 - 18:00  -0.5°C  -4.9°C  1013.0 hPa  75%  14.1 km/h   0.03 mm/h  16.1km  69%  Mostly Cloudy 
 23/11/2017 - 19:00  -0.8°C  -5.4°C  1012.7 hPa  79%  15.3 km/h   0.04 mm/h  16.1km  65%  Mostly Cloudy 
 23/11/2017 - 20:00  -0.6°C  -5.4°C  1012.3 hPa  83%  16.7 km/h   0.03 mm/h  16.1km  63%  Mostly Cloudy 
 23/11/2017 - 21:00  0.0°C  -4.9°C  1011.8 hPa  84%  18.2 km/h   0.03 mm/h  16.1km  64%  Mostly Cloudy 
 23/11/2017 - 22:00  0.5°C  -4.5°C  1011.5 hPa  84%  19.3 km/h   0.03 mm/h  16.1km  67%  Mostly Cloudy 
 23/11/2017 - 23:00  0.7°C  -4.3°C  1011.4 hPa  83%  19.7 km/h   0.04 mm/h  16.1km  77%  Mostly Cloudy 
 24/11/2017 - 00:00  0.4°C  -4.6°C  1011.5 hPa  84%  19.7 km/h   0.04 mm/h  16.1km  92%  Mostly Cloudy 
 24/11/2017 - 01:00  0.1°C  -5.0°C  1011.6 hPa  85%  19.1 km/h   0.04 mm/h  16.1km  99%  Overcast 
 24/11/2017 - 02:00  -0.2°C  -5.2°C  1011.8 hPa  87%  17.7 km/h   0.03 mm/h  16.1km  84%  Mostly Cloudy 
 24/11/2017 - 03:00  -0.3°C  -4.9°C  1012.1 hPa  87%  15.7 km/h   0.02 mm/h  16.1km  58%  Partly Cloudy 
 24/11/2017 - 04:00  -0.1°C  -4.4°C  1012.5 hPa  86%  13.9 km/h   0.02 mm/h  16.1km  41%  Partly Cloudy 
 24/11/2017 - 05:00  0.1°C  -3.8°C  1013.0 hPa  86%  12.4 km/h   0.02 mm/h  16.1km  43%  Partly Cloudy 
 24/11/2017 - 06:00  0.2°C  -3.3°C  1013.5 hPa  86%  11.1 km/h   0.02 mm/h  16.1km  52%  Partly Cloudy 
 24/11/2017 - 07:00  0.5°C  -2.8°C  1013.8 hPa  86%  10.5 km/h   0.02 mm/h  16.1km  57%  Partly Cloudy 
 24/11/2017 - 08:00  1.0°C  -2.3°C  1013.8 hPa  85%  10.9 km/h   0.02 mm/h  16.1km  51%  Partly Cloudy 
 24/11/2017 - 09:00  1.7°C  -1.7°C  1013.5 hPa  83%  12.1 km/h   0.02 mm/h  16.1km  41%  Partly Cloudy 
 24/11/2017 - 10:00  2.7°C  -0.8°C  1013.1 hPa  81%  13.4 km/h   0.03 mm/h  16.1km  33%  Partly Cloudy 
 24/11/2017 - 11:00  3.7°C  0.2°C  1012.2 hPa  78%  14.7 km/h   0.06 mm/h  16.1km  30%  Partly Cloudy 
 24/11/2017 - 12:00  5.0°C  1.6°C  1011.2 hPa  74%  16.2 km/h   0.13 mm/h  16.1km  30%  Partly Cloudy 
 24/11/2017 - 13:00  5.8°C  2.5°C  1010.2 hPa  72%  17.2 km/h   0.19 mm/h  16.1km  33%  Partly Cloudy 
Test

 

Past weather and reports

Past weatherFind in this section the past weather conditions, weather archive, graphics, reports and statistics.

Current conditions

Current weather condition for MontrealAll you need to know about the current weather conditions for Montreal. Weather data is updated every 10 minutes.

Weather forecast

Current Montreal weatherSince 2004, celinium.com website provides accurate weather forecast for Montreal's island.